San Ygnacio, Texas
Current Conditions -  °F | °C
As of 12:15 AM on Tuesday 21 Oct 2014 (Local Time) from KAPY Reporting Station
Overcast Overcast  
Wind Chill: 73°   Ceiling: 8000
Heat Index: 73°   Visibility: 10mi
Dew Point: 67°   Wind: 9mph
Humidity: 81%   Direction: 90°E
Pressure: 29.97"   Gusts: NA
Location:  27.04°N, 99.44°W
Report Text: KAPY 210515Z AUTO 09008KT 10SM OVC080 22/19 A2997 RMK AO2 T02300196
Loading
Personal Weather Stations






























Interactive Weather Map New forecast layout! Learn more

10-Day Weather Forecast

Advertisements
Track Severe Weather on mobile